sensor_id;sensor_type;location;lat;lon;timestamp;P1;durP1;ratioP1;P2;durP2;ratioP2
14799;SDS011;7491;57.750;11.970;2023-09-12T00:00:23;110.13;;;49.60;;
14799;SDS011;7491;57.750;11.970;2023-09-12T00:02:50;105.85;;;49.95;;
14799;SDS011;7491;57.750;11.970;2023-09-12T00:05:16;116.72;;;53.30;;
14799;SDS011;7491;57.750;11.970;2023-09-12T00:07:43;113.18;;;51.78;;
14799;SDS011;7491;57.750;11.970;2023-09-12T00:10:11;106.15;;;48.35;;
14799;SDS011;7491;57.750;11.970;2023-09-12T00:12:38;130.88;;;46.10;;
14799;SDS011;7491;57.750;11.970;2023-09-12T00:15:05;114.40;;;49.67;;
14799;SDS011;7491;57.750;11.970;2023-09-12T00:17:32;102.43;;;48.65;;
14799;SDS011;7491;57.750;11.970;2023-09-12T00:19:59;117.82;;;48.88;;
14799;SDS011;7491;57.750;11.970;2023-09-12T00:22:26;110.15;;;50.75;;
14799;SDS011;7491;57.750;11.970;2023-09-12T00:24:52;97.47;;;46.60;;
14799;SDS011;7491;57.750;11.970;2023-09-12T00:27:21;106.32;;;48.10;;
14799;SDS011;7491;57.750;11.970;2023-09-12T00:29:47;97.38;;;45.63;;
14799;SDS011;7491;57.750;11.970;2023-09-12T00:32:14;102.72;;;47.17;;
14799;SDS011;7491;57.750;11.970;2023-09-12T00:34:41;93.32;;;43.42;;
14799;SDS011;7491;57.750;11.970;2023-09-12T00:37:07;93.43;;;46.38;;
14799;SDS011;7491;57.750;11.970;2023-09-12T00:39:35;101.00;;;44.55;;
14799;SDS011;7491;57.750;11.970;2023-09-12T00:42:02;83.68;;;39.58;;
14799;SDS011;7491;57.750;11.970;2023-09-12T00:44:30;83.47;;;40.47;;
14799;SDS011;7491;57.750;11.970;2023-09-12T00:46:57;80.80;;;41.78;;
14799;SDS011;7491;57.750;11.970;2023-09-12T00:49:24;85.18;;;44.80;;
14799;SDS011;7491;57.750;11.970;2023-09-12T00:51:52;87.60;;;42.45;;
14799;SDS011;7491;57.750;11.970;2023-09-12T00:54:19;86.00;;;41.83;;
14799;SDS011;7491;57.750;11.970;2023-09-12T00:56:46;90.30;;;44.80;;
14799;SDS011;7491;57.750;11.970;2023-09-12T00:59:13;94.88;;;47.97;;
14799;SDS011;7491;57.750;11.970;2023-09-12T01:01:43;102.90;;;52.45;;
14799;SDS011;7491;57.750;11.970;2023-09-12T01:04:10;85.68;;;48.70;;
14799;SDS011;7491;57.750;11.970;2023-09-12T01:06:37;78.65;;;44.00;;
14799;SDS011;7491;57.750;11.970;2023-09-12T01:09:04;107.25;;;49.70;;
14799;SDS011;7491;57.750;11.970;2023-09-12T01:11:32;92.22;;;48.30;;
14799;SDS011;7491;57.750;11.970;2023-09-12T01:14:00;105.20;;;52.17;;
14799;SDS011;7491;57.750;11.970;2023-09-12T01:16:27;98.15;;;48.38;;
14799;SDS011;7491;57.750;11.970;2023-09-12T01:18:56;106.72;;;50.88;;
14799;SDS011;7491;57.750;11.970;2023-09-12T01:21:28;103.25;;;52.38;;
14799;SDS011;7491;57.750;11.970;2023-09-12T01:24:08;115.70;;;55.40;;
14799;SDS011;7491;57.750;11.970;2023-09-12T01:26:59;118.90;;;55.40;;
14799;SDS011;7491;57.750;11.970;2023-09-12T01:29:40;117.75;;;57.10;;
14799;SDS011;7491;57.750;11.970;2023-09-12T01:32:10;125.82;;;59.00;;
14799;SDS011;7491;57.750;11.970;2023-09-12T01:34:37;119.10;;;56.45;;
14799;SDS011;7491;57.750;11.970;2023-09-12T01:37:03;128.68;;;60.13;;
14799;SDS011;7491;57.750;11.970;2023-09-12T01:39:30;131.65;;;60.00;;
14799;SDS011;7491;57.750;11.970;2023-09-12T01:41:57;131.57;;;61.17;;
14799;SDS011;7491;57.750;11.970;2023-09-12T01:44:27;138.75;;;63.08;;
14799;SDS011;7491;57.750;11.970;2023-09-12T01:46:55;138.00;;;62.78;;
14799;SDS011;7491;57.750;11.970;2023-09-12T01:49:27;136.25;;;60.92;;
14799;SDS011;7491;57.750;11.970;2023-09-12T01:51:55;134.88;;;60.83;;
14799;SDS011;7491;57.750;11.970;2023-09-12T01:54:24;126.78;;;58.38;;
14799;SDS011;7491;57.750;11.970;2023-09-12T01:56:52;118.65;;;59.30;;
14799;SDS011;7491;57.750;11.970;2023-09-12T01:59:22;127.45;;;58.90;;
14799;SDS011;7491;57.750;11.970;2023-09-12T02:01:50;126.78;;;58.42;;
14799;SDS011;7491;57.750;11.970;2023-09-12T02:04:17;123.88;;;59.00;;
14799;SDS011;7491;57.750;11.970;2023-09-12T02:06:44;123.30;;;57.97;;
14799;SDS011;7491;57.750;11.970;2023-09-12T02:09:11;119.40;;;57.58;;
14799;SDS011;7491;57.750;11.970;2023-09-12T02:11:37;120.40;;;57.63;;
14799;SDS011;7491;57.750;11.970;2023-09-12T02:14:04;116.70;;;59.22;;
14799;SDS011;7491;57.750;11.970;2023-09-12T02:16:31;102.38;;;54.67;;
14799;SDS011;7491;57.750;11.970;2023-09-12T02:18:59;108.88;;;54.15;;
14799;SDS011;7491;57.750;11.970;2023-09-12T02:21:26;95.38;;;51.88;;
14799;SDS011;7491;57.750;11.970;2023-09-12T02:23:52;104.35;;;52.13;;
14799;SDS011;7491;57.750;11.970;2023-09-12T02:26:19;99.05;;;51.83;;
14799;SDS011;7491;57.750;11.970;2023-09-12T02:28:46;92.93;;;50.53;;
14799;SDS011;7491;57.750;11.970;2023-09-12T02:31:12;99.50;;;52.13;;
14799;SDS011;7491;57.750;11.970;2023-09-12T02:33:39;101.03;;;54.50;;
14799;SDS011;7491;57.750;11.970;2023-09-12T02:36:08;99.07;;;51.53;;
14799;SDS011;7491;57.750;11.970;2023-09-12T02:38:34;89.88;;;52.97;;
14799;SDS011;7491;57.750;11.970;2023-09-12T02:41:01;103.07;;;53.20;;
14799;SDS011;7491;57.750;11.970;2023-09-12T02:43:28;100.78;;;53.38;;
14799;SDS011;7491;57.750;11.970;2023-09-12T02:45:55;102.95;;;53.10;;
14799;SDS011;7491;57.750;11.970;2023-09-12T02:48:22;100.28;;;51.85;;
14799;SDS011;7491;57.750;11.970;2023-09-12T02:50:48;91.03;;;50.30;;
14799;SDS011;7491;57.750;11.970;2023-09-12T02:53:17;87.88;;;49.63;;
14799;SDS011;7491;57.750;11.970;2023-09-12T02:55:43;98.90;;;51.10;;
14799;SDS011;7491;57.750;11.970;2023-09-12T02:58:10;95.40;;;51.00;;
14799;SDS011;7491;57.750;11.970;2023-09-12T03:00:37;93.05;;;51.05;;
14799;SDS011;7491;57.750;11.970;2023-09-12T03:03:05;101.75;;;52.00;;
14799;SDS011;7491;57.750;11.970;2023-09-12T03:05:34;103.50;;;52.58;;
14799;SDS011;7491;57.750;11.970;2023-09-12T03:08:01;90.38;;;48.08;;
14799;SDS011;7491;57.750;11.970;2023-09-12T03:10:29;87.22;;;48.45;;
14799;SDS011;7491;57.750;11.970;2023-09-12T03:12:56;85.43;;;47.30;;
14799;SDS011;7491;57.750;11.970;2023-09-12T03:15:22;94.85;;;48.70;;
14799;SDS011;7491;57.750;11.970;2023-09-12T03:17:49;79.05;;;46.92;;
14799;SDS011;7491;57.750;11.970;2023-09-12T03:20:16;93.55;;;47.70;;
14799;SDS011;7491;57.750;11.970;2023-09-12T03:22:43;85.03;;;46.92;;
14799;SDS011;7491;57.750;11.970;2023-09-12T03:25:11;87.10;;;47.25;;
14799;SDS011;7491;57.750;11.970;2023-09-12T03:27:39;84.45;;;45.75;;
14799;SDS011;7491;57.750;11.970;2023-09-12T03:30:06;87.32;;;45.58;;
14799;SDS011;7491;57.750;11.970;2023-09-12T03:32:34;70.25;;;40.25;;
14799;SDS011;7491;57.750;11.970;2023-09-12T03:35:01;68.53;;;38.55;;
14799;SDS011;7491;57.750;11.970;2023-09-12T03:37:27;71.40;;;40.40;;
14799;SDS011;7491;57.750;11.970;2023-09-12T03:39:54;69.47;;;38.90;;
14799;SDS011;7491;57.750;11.970;2023-09-12T03:42:21;70.47;;;40.78;;
14799;SDS011;7491;57.750;11.970;2023-09-12T03:44:49;67.22;;;39.55;;
14799;SDS011;7491;57.750;11.970;2023-09-12T03:47:15;56.50;;;37.03;;
14799;SDS011;7491;57.750;11.970;2023-09-12T03:49:42;63.75;;;38.25;;
14799;SDS011;7491;57.750;11.970;2023-09-12T03:52:09;64.90;;;36.75;;
14799;SDS011;7491;57.750;11.970;2023-09-12T03:54:35;69.53;;;38.53;;
14799;SDS011;7491;57.750;11.970;2023-09-12T03:57:02;66.82;;;37.63;;
14799;SDS011;7491;57.750;11.970;2023-09-12T03:59:29;61.20;;;36.15;;
14799;SDS011;7491;57.750;11.970;2023-09-12T04:01:57;68.30;;;36.03;;
14799;SDS011;7491;57.750;11.970;2023-09-12T04:04:24;69.82;;;39.15;;
14799;SDS011;7491;57.750;11.970;2023-09-12T04:06:51;63.83;;;37.60;;
14799;SDS011;7491;57.750;11.970;2023-09-12T04:09:18;63.95;;;35.92;;
14799;SDS011;7491;57.750;11.970;2023-09-12T04:11:44;49.55;;;31.88;;
14799;SDS011;7491;57.750;11.970;2023-09-12T04:14:11;42.78;;;28.08;;
14799;SDS011;7491;57.750;11.970;2023-09-12T04:16:38;41.08;;;25.98;;
14799;SDS011;7491;57.750;11.970;2023-09-12T04:19:06;43.95;;;27.88;;
14799;SDS011;7491;57.750;11.970;2023-09-12T04:21:33;38.15;;;25.92;;
14799;SDS011;7491;57.750;11.970;2023-09-12T04:24:00;37.70;;;25.98;;
14799;SDS011;7491;57.750;11.970;2023-09-12T04:26:27;38.00;;;25.95;;
14799;SDS011;7491;57.750;11.970;2023-09-12T04:28:54;39.95;;;26.60;;
14799;SDS011;7491;57.750;11.970;2023-09-12T04:31:21;35.95;;;26.58;;
14799;SDS011;7491;57.750;11.970;2023-09-12T04:33:47;34.15;;;25.52;;
14799;SDS011;7491;57.750;11.970;2023-09-12T04:36:18;32.90;;;23.70;;
14799;SDS011;7491;57.750;11.970;2023-09-12T04:38:45;32.60;;;22.45;;
14799;SDS011;7491;57.750;11.970;2023-09-12T04:41:12;34.92;;;23.95;;
14799;SDS011;7491;57.750;11.970;2023-09-12T04:43:42;30.80;;;22.70;;
14799;SDS011;7491;57.750;11.970;2023-09-12T04:46:09;37.45;;;23.38;;
14799;SDS011;7491;57.750;11.970;2023-09-12T04:48:36;34.47;;;22.52;;
14799;SDS011;7491;57.750;11.970;2023-09-12T04:51:02;32.80;;;22.90;;
14799;SDS011;7491;57.750;11.970;2023-09-12T04:53:31;31.00;;;22.58;;
14799;SDS011;7491;57.750;11.970;2023-09-12T04:55:59;34.83;;;23.10;;
14799;SDS011;7491;57.750;11.970;2023-09-12T04:58:26;28.55;;;22.42;;
14799;SDS011;7491;57.750;11.970;2023-09-12T05:00:53;31.73;;;22.60;;
14799;SDS011;7491;57.750;11.970;2023-09-12T05:03:20;30.60;;;21.73;;
14799;SDS011;7491;57.750;11.970;2023-09-12T05:05:47;34.47;;;22.65;;
14799;SDS011;7491;57.750;11.970;2023-09-12T05:08:15;36.55;;;22.95;;
14799;SDS011;7491;57.750;11.970;2023-09-12T05:10:44;29.80;;;22.23;;
14799;SDS011;7491;57.750;11.970;2023-09-12T05:13:11;33.97;;;23.45;;
14799;SDS011;7491;57.750;11.970;2023-09-12T05:15:38;29.15;;;21.83;;
14799;SDS011;7491;57.750;11.970;2023-09-12T05:18:06;37.80;;;24.08;;
14799;SDS011;7491;57.750;11.970;2023-09-12T05:20:33;32.97;;;22.42;;
14799;SDS011;7491;57.750;11.970;2023-09-12T05:23:00;28.92;;;21.55;;
14799;SDS011;7491;57.750;11.970;2023-09-12T05:25:26;37.03;;;23.08;;
14799;SDS011;7491;57.750;11.970;2023-09-12T05:27:55;26.33;;;18.52;;
14799;SDS011;7491;57.750;11.970;2023-09-12T05:30:22;29.05;;;19.52;;
14799;SDS011;7491;57.750;11.970;2023-09-12T05:32:48;29.50;;;20.75;;
14799;SDS011;7491;57.750;11.970;2023-09-12T05:35:15;27.17;;;19.35;;
14799;SDS011;7491;57.750;11.970;2023-09-12T05:37:42;31.65;;;19.95;;
14799;SDS011;7491;57.750;11.970;2023-09-12T05:40:09;29.42;;;20.00;;
14799;SDS011;7491;57.750;11.970;2023-09-12T05:42:36;28.65;;;20.25;;
14799;SDS011;7491;57.750;11.970;2023-09-12T05:45:05;25.55;;;18.17;;
14799;SDS011;7491;57.750;11.970;2023-09-12T05:47:33;33.78;;;20.27;;
14799;SDS011;7491;57.750;11.970;2023-09-12T05:49:59;27.17;;;18.48;;
14799;SDS011;7491;57.750;11.970;2023-09-12T05:52:29;28.30;;;20.53;;
14799;SDS011;7491;57.750;11.970;2023-09-12T05:54:56;27.25;;;19.23;;
14799;SDS011;7491;57.750;11.970;2023-09-12T05:57:23;28.75;;;18.38;;
14799;SDS011;7491;57.750;11.970;2023-09-12T05:59:50;27.70;;;17.90;;
14799;SDS011;7491;57.750;11.970;2023-09-12T06:02:18;32.88;;;19.42;;
14799;SDS011;7491;57.750;11.970;2023-09-12T06:04:44;27.33;;;18.13;;
14799;SDS011;7491;57.750;11.970;2023-09-12T06:07:11;29.13;;;18.38;;
14799;SDS011;7491;57.750;11.970;2023-09-12T06:09:38;26.58;;;18.38;;
14799;SDS011;7491;57.750;11.970;2023-09-12T06:12:05;29.05;;;18.40;;
14799;SDS011;7491;57.750;11.970;2023-09-12T06:14:32;28.13;;;16.83;;
14799;SDS011;7491;57.750;11.970;2023-09-12T06:16:59;30.52;;;18.10;;
14799;SDS011;7491;57.750;11.970;2023-09-12T06:19:27;25.65;;;18.02;;
14799;SDS011;7491;57.750;11.970;2023-09-12T06:21:54;25.25;;;19.17;;
14799;SDS011;7491;57.750;11.970;2023-09-12T06:24:21;27.30;;;19.20;;
14799;SDS011;7491;57.750;11.970;2023-09-12T06:26:49;27.98;;;19.10;;
14799;SDS011;7491;57.750;11.970;2023-09-12T06:29:17;25.55;;;18.58;;
14799;SDS011;7491;57.750;11.970;2023-09-12T06:31:43;26.00;;;19.38;;
14799;SDS011;7491;57.750;11.970;2023-09-12T06:34:10;31.58;;;20.20;;
14799;SDS011;7491;57.750;11.970;2023-09-12T06:36:39;30.02;;;19.27;;
14799;SDS011;7491;57.750;11.970;2023-09-12T06:39:06;28.23;;;19.75;;
14799;SDS011;7491;57.750;11.970;2023-09-12T06:41:33;27.10;;;20.15;;
14799;SDS011;7491;57.750;11.970;2023-09-12T06:44:00;29.83;;;20.83;;
14799;SDS011;7491;57.750;11.970;2023-09-12T06:46:28;26.63;;;19.50;;
14799;SDS011;7491;57.750;11.970;2023-09-12T06:48:54;30.00;;;20.17;;
14799;SDS011;7491;57.750;11.970;2023-09-12T06:51:23;35.47;;;21.30;;
14799;SDS011;7491;57.750;11.970;2023-09-12T06:53:52;28.77;;;20.70;;
14799;SDS011;7491;57.750;11.970;2023-09-12T06:56:18;30.73;;;20.30;;
14799;SDS011;7491;57.750;11.970;2023-09-12T06:58:46;27.13;;;19.33;;
14799;SDS011;7491;57.750;11.970;2023-09-12T07:01:13;33.25;;;19.88;;
14799;SDS011;7491;57.750;11.970;2023-09-12T07:03:43;25.50;;;19.58;;
14799;SDS011;7491;57.750;11.970;2023-09-12T07:06:09;23.80;;;19.73;;
14799;SDS011;7491;57.750;11.970;2023-09-12T07:08:36;27.30;;;19.38;;
14799;SDS011;7491;57.750;11.970;2023-09-12T07:11:05;23.52;;;18.83;;
14799;SDS011;7491;57.750;11.970;2023-09-12T07:13:32;31.27;;;19.33;;
14799;SDS011;7491;57.750;11.970;2023-09-12T07:15:59;28.00;;;19.30;;
14799;SDS011;7491;57.750;11.970;2023-09-12T07:18:28;30.38;;;19.05;;
14799;SDS011;7491;57.750;11.970;2023-09-12T07:20:58;28.70;;;18.58;;
14799;SDS011;7491;57.750;11.970;2023-09-12T07:23:26;24.70;;;18.52;;
14799;SDS011;7491;57.750;11.970;2023-09-12T07:25:53;24.45;;;18.30;;
14799;SDS011;7491;57.750;11.970;2023-09-12T07:28:23;24.48;;;16.33;;
14799;SDS011;7491;57.750;11.970;2023-09-12T07:30:50;18.65;;;15.70;;
14799;SDS011;7491;57.750;11.970;2023-09-12T07:33:17;21.23;;;16.15;;
14799;SDS011;7491;57.750;11.970;2023-09-12T07:35:45;21.85;;;16.17;;
14799;SDS011;7491;57.750;11.970;2023-09-12T07:38:12;19.88;;;15.23;;
14799;SDS011;7491;57.750;11.970;2023-09-12T07:40:40;18.25;;;15.45;;
14799;SDS011;7491;57.750;11.970;2023-09-12T07:43:07;22.83;;;14.15;;
14799;SDS011;7491;57.750;11.970;2023-09-12T07:45:36;20.65;;;14.82;;
14799;SDS011;7491;57.750;11.970;2023-09-12T07:48:03;15.55;;;13.40;;
14799;SDS011;7491;57.750;11.970;2023-09-12T07:50:30;18.67;;;13.88;;
14799;SDS011;7491;57.750;11.970;2023-09-12T07:52:57;14.73;;;12.38;;
14799;SDS011;7491;57.750;11.970;2023-09-12T07:55:26;18.85;;;12.43;;
14799;SDS011;7491;57.750;11.970;2023-09-12T07:57:56;15.95;;;12.73;;
14799;SDS011;7491;57.750;11.970;2023-09-12T08:00:22;18.63;;;11.82;;
14799;SDS011;7491;57.750;11.970;2023-09-12T08:02:51;14.88;;;11.00;;
14799;SDS011;7491;57.750;11.970;2023-09-12T08:05:19;15.35;;;10.93;;
14799;SDS011;7491;57.750;11.970;2023-09-12T08:07:46;15.38;;;10.60;;
14799;SDS011;7491;57.750;11.970;2023-09-12T08:10:13;16.02;;;11.15;;
14799;SDS011;7491;57.750;11.970;2023-09-12T08:12:39;12.88;;;10.38;;
14799;SDS011;7491;57.750;11.970;2023-09-12T08:15:07;12.55;;;9.60;;
14799;SDS011;7491;57.750;11.970;2023-09-12T08:17:34;14.52;;;10.60;;
14799;SDS011;7491;57.750;11.970;2023-09-12T08:20:03;15.18;;;10.35;;
14799;SDS011;7491;57.750;11.970;2023-09-12T08:22:30;14.35;;;10.75;;
14799;SDS011;7491;57.750;11.970;2023-09-12T08:24:57;17.92;;;11.50;;
14799;SDS011;7491;57.750;11.970;2023-09-12T08:27:23;17.45;;;11.55;;
14799;SDS011;7491;57.750;11.970;2023-09-12T08:29:50;15.25;;;11.90;;
14799;SDS011;7491;57.750;11.970;2023-09-12T08:32:17;16.77;;;11.80;;
14799;SDS011;7491;57.750;11.970;2023-09-12T08:34:43;14.25;;;10.98;;
14799;SDS011;7491;57.750;11.970;2023-09-12T08:37:12;15.27;;;11.30;;
14799;SDS011;7491;57.750;11.970;2023-09-12T08:39:42;12.85;;;10.90;;
14799;SDS011;7491;57.750;11.970;2023-09-12T08:42:14;14.05;;;10.30;;
14799;SDS011;7491;57.750;11.970;2023-09-12T08:44:41;16.50;;;11.43;;
14799;SDS011;7491;57.750;11.970;2023-09-12T08:47:09;16.45;;;11.50;;
14799;SDS011;7491;57.750;11.970;2023-09-12T08:49:37;15.93;;;11.27;;
14799;SDS011;7491;57.750;11.970;2023-09-12T08:52:05;15.48;;;11.57;;
14799;SDS011;7491;57.750;11.970;2023-09-12T08:54:33;13.85;;;12.02;;
14799;SDS011;7491;57.750;11.970;2023-09-12T08:57:00;15.07;;;10.55;;
14799;SDS011;7491;57.750;11.970;2023-09-12T08:59:29;12.30;;;10.65;;
14799;SDS011;7491;57.750;11.970;2023-09-12T09:01:57;15.40;;;10.63;;
14799;SDS011;7491;57.750;11.970;2023-09-12T09:04:26;15.70;;;11.35;;
14799;SDS011;7491;57.750;11.970;2023-09-12T09:06:56;17.55;;;11.05;;
14799;SDS011;7491;57.750;11.970;2023-09-12T09:09:23;17.20;;;10.57;;
14799;SDS011;7491;57.750;11.970;2023-09-12T09:11:55;15.45;;;10.52;;
14799;SDS011;7491;57.750;11.970;2023-09-12T09:14:22;14.70;;;11.23;;
14799;SDS011;7491;57.750;11.970;2023-09-12T09:16:48;14.27;;;10.80;;
14799;SDS011;7491;57.750;11.970;2023-09-12T09:19:15;13.88;;;11.10;;
14799;SDS011;7491;57.750;11.970;2023-09-12T09:21:43;18.33;;;11.23;;
14799;SDS011;7491;57.750;11.970;2023-09-12T09:24:11;18.13;;;11.85;;
14799;SDS011;7491;57.750;11.970;2023-09-12T09:26:42;17.10;;;11.90;;
14799;SDS011;7491;57.750;11.970;2023-09-12T09:29:12;16.17;;;11.65;;
14799;SDS011;7491;57.750;11.970;2023-09-12T09:31:44;16.83;;;13.00;;
14799;SDS011;7491;57.750;11.970;2023-09-12T09:34:12;17.77;;;13.13;;
14799;SDS011;7491;57.750;11.970;2023-09-12T09:36:43;21.10;;;14.68;;
14799;SDS011;7491;57.750;11.970;2023-09-12T09:39:10;18.42;;;13.82;;
14799;SDS011;7491;57.750;11.970;2023-09-12T09:41:38;18.60;;;13.88;;
14799;SDS011;7491;57.750;11.970;2023-09-12T09:44:05;17.70;;;11.73;;
14799;SDS011;7491;57.750;11.970;2023-09-12T09:46:35;17.95;;;11.60;;
14799;SDS011;7491;57.750;11.970;2023-09-12T09:49:03;16.75;;;11.10;;
14799;SDS011;7491;57.750;11.970;2023-09-12T09:51:32;18.95;;;10.18;;
14799;SDS011;7491;57.750;11.970;2023-09-12T09:53:58;15.05;;;9.23;;
14799;SDS011;7491;57.750;11.970;2023-09-12T09:56:25;14.88;;;8.32;;
14799;SDS011;7491;57.750;11.970;2023-09-12T09:58:53;11.25;;;7.05;;
14799;SDS011;7491;57.750;11.970;2023-09-12T10:01:20;10.05;;;6.13;;
14799;SDS011;7491;57.750;11.970;2023-09-12T10:03:51;13.23;;;5.65;;
14799;SDS011;7491;57.750;11.970;2023-09-12T10:06:19;11.55;;;5.13;;
14799;SDS011;7491;57.750;11.970;2023-09-12T10:08:47;10.93;;;4.70;;
14799;SDS011;7491;57.750;11.970;2023-09-12T10:11:16;8.27;;;4.55;;
14799;SDS011;7491;57.750;11.970;2023-09-12T10:13:46;12.70;;;3.90;;
14799;SDS011;7491;57.750;11.970;2023-09-12T10:16:23;7.70;;;4.05;;
14799;SDS011;7491;57.750;11.970;2023-09-12T10:18:55;11.13;;;3.83;;
14799;SDS011;7491;57.750;11.970;2023-09-12T10:21:27;9.65;;;4.38;;
14799;SDS011;7491;57.750;11.970;2023-09-12T10:23:56;8.70;;;4.43;;
14799;SDS011;7491;57.750;11.970;2023-09-12T10:26:25;14.20;;;4.10;;
14799;SDS011;7491;57.750;11.970;2023-09-12T10:28:53;12.07;;;3.97;;
14799;SDS011;7491;57.750;11.970;2023-09-12T10:31:21;9.70;;;3.58;;
14799;SDS011;7491;57.750;11.970;2023-09-12T10:33:50;9.05;;;3.92;;
14799;SDS011;7491;57.750;11.970;2023-09-12T10:36:19;10.00;;;3.70;;
14799;SDS011;7491;57.750;11.970;2023-09-12T10:38:47;11.45;;;4.20;;
14799;SDS011;7491;57.750;11.970;2023-09-12T10:41:15;9.45;;;3.67;;
14799;SDS011;7491;57.750;11.970;2023-09-12T10:43:43;7.75;;;3.28;;
14799;SDS011;7491;57.750;11.970;2023-09-12T10:46:14;8.35;;;3.65;;
14799;SDS011;7491;57.750;11.970;2023-09-12T10:48:41;8.50;;;3.75;;
14799;SDS011;7491;57.750;11.970;2023-09-12T10:51:09;10.02;;;3.83;;
14799;SDS011;7491;57.750;11.970;2023-09-12T10:53:39;6.30;;;3.40;;
14799;SDS011;7491;57.750;11.970;2023-09-12T10:56:14;11.50;;;3.70;;
14799;SDS011;7491;57.750;11.970;2023-09-12T11:01:35;7.35;;;3.20;;
14799;SDS011;7491;57.750;11.970;2023-09-12T11:04:05;8.30;;;3.13;;
14799;SDS011;7491;57.750;11.970;2023-09-12T11:07:04;7.45;;;2.85;;
14799;SDS011;7491;57.750;11.970;2023-09-12T11:10:21;8.23;;;2.50;;
14799;SDS011;7491;57.750;11.970;2023-09-12T11:12:49;7.32;;;2.80;;
14799;SDS011;7491;57.750;11.970;2023-09-12T11:15:16;5.95;;;2.17;;
14799;SDS011;7491;57.750;11.970;2023-09-12T11:17:44;3.88;;;1.90;;
14799;SDS011;7491;57.750;11.970;2023-09-12T11:20:12;4.93;;;1.73;;
14799;SDS011;7491;57.750;11.970;2023-09-12T11:22:42;4.95;;;1.65;;
14799;SDS011;7491;57.750;11.970;2023-09-12T11:25:16;4.40;;;1.60;;
14799;SDS011;7491;57.750;11.970;2023-09-12T11:27:45;1.50;;;1.02;;
14799;SDS011;7491;57.750;11.970;2023-09-12T11:30:28;3.85;;;1.10;;
14799;SDS011;7491;57.750;11.970;2023-09-12T11:32:56;0.90;;;0.80;;
14799;SDS011;7491;57.750;11.970;2023-09-12T11:35:25;3.00;;;0.85;;
14799;SDS011;7491;57.750;11.970;2023-09-12T11:37:55;3.10;;;0.90;;
14799;SDS011;7491;57.750;11.970;2023-09-12T11:40:23;1.23;;;0.80;;
14799;SDS011;7491;57.750;11.970;2023-09-12T11:42:51;1.38;;;0.90;;
14799;SDS011;7491;57.750;11.970;2023-09-12T11:45:19;3.22;;;0.70;;
14799;SDS011;7491;57.750;11.970;2023-09-12T11:47:46;3.17;;;0.80;;
14799;SDS011;7491;57.750;11.970;2023-09-12T11:50:29;2.15;;;0.70;;
14799;SDS011;7491;57.750;11.970;2023-09-12T11:53:02;2.78;;;0.75;;
14799;SDS011;7491;57.750;11.970;2023-09-12T11:55:30;1.50;;;0.80;;
14799;SDS011;7491;57.750;11.970;2023-09-12T11:57:58;1.88;;;0.70;;
14799;SDS011;7491;57.750;11.970;2023-09-12T12:00:25;1.83;;;0.85;;
14799;SDS011;7491;57.750;11.970;2023-09-12T12:02:53;2.60;;;0.70;;
14799;SDS011;7491;57.750;11.970;2023-09-12T12:05:20;2.88;;;1.00;;
14799;SDS011;7491;57.750;11.970;2023-09-12T12:07:47;4.05;;;0.90;;
14799;SDS011;7491;57.750;11.970;2023-09-12T12:10:16;4.00;;;0.95;;
14799;SDS011;7491;57.750;11.970;2023-09-12T12:12:44;1.30;;;0.80;;
14799;SDS011;7491;57.750;11.970;2023-09-12T12:15:13;2.55;;;1.00;;
14799;SDS011;7491;57.750;11.970;2023-09-12T12:17:40;4.80;;;1.15;;
14799;SDS011;7491;57.750;11.970;2023-09-12T12:20:08;3.08;;;1.20;;
14799;SDS011;7491;57.750;11.970;2023-09-12T12:22:36;4.07;;;1.13;;
14799;SDS011;7491;57.750;11.970;2023-09-12T12:25:07;4.82;;;1.40;;
14799;SDS011;7491;57.750;11.970;2023-09-12T12:27:36;4.57;;;1.20;;
14799;SDS011;7491;57.750;11.970;2023-09-12T12:30:05;5.55;;;1.40;;
14799;SDS011;7491;57.750;11.970;2023-09-12T12:32:33;5.05;;;1.30;;
14799;SDS011;7491;57.750;11.970;2023-09-12T12:35:00;3.45;;;1.40;;
14799;SDS011;7491;57.750;11.970;2023-09-12T12:37:29;4.70;;;1.73;;
14799;SDS011;7491;57.750;11.970;2023-09-12T12:39:56;5.15;;;1.63;;
14799;SDS011;7491;57.750;11.970;2023-09-12T12:42:24;5.32;;;1.52;;
14799;SDS011;7491;57.750;11.970;2023-09-12T12:44:53;8.82;;;1.95;;
14799;SDS011;7491;57.750;11.970;2023-09-12T12:47:20;7.35;;;1.48;;
14799;SDS011;7491;57.750;11.970;2023-09-12T12:49:50;9.27;;;2.08;;
14799;SDS011;7491;57.750;11.970;2023-09-12T12:52:21;8.43;;;2.00;;
14799;SDS011;7491;57.750;11.970;2023-09-12T12:54:48;7.50;;;1.67;;
14799;SDS011;7491;57.750;11.970;2023-09-12T12:57:18;8.40;;;1.60;;
14799;SDS011;7491;57.750;11.970;2023-09-12T12:59:45;4.60;;;1.80;;
14799;SDS011;7491;57.750;11.970;2023-09-12T13:02:14;4.38;;;1.35;;
14799;SDS011;7491;57.750;11.970;2023-09-12T13:04:41;4.00;;;1.20;;
14799;SDS011;7491;57.750;11.970;2023-09-12T13:07:07;4.85;;;1.42;;
14799;SDS011;7491;57.750;11.970;2023-09-12T13:09:35;4.82;;;1.10;;
14799;SDS011;7491;57.750;11.970;2023-09-12T13:12:03;3.67;;;1.23;;
14799;SDS011;7491;57.750;11.970;2023-09-12T13:14:31;5.70;;;1.58;;
14799;SDS011;7491;57.750;11.970;2023-09-12T13:16:58;4.82;;;1.25;;
14799;SDS011;7491;57.750;11.970;2023-09-12T13:19:27;4.45;;;1.08;;
14799;SDS011;7491;57.750;11.970;2023-09-12T13:21:53;4.63;;;1.20;;
14799;SDS011;7491;57.750;11.970;2023-09-12T13:24:20;6.88;;;1.10;;
14799;SDS011;7491;57.750;11.970;2023-09-12T13:26:48;3.85;;;0.98;;
14799;SDS011;7491;57.750;11.970;2023-09-12T13:29:15;1.70;;;0.70;;
14799;SDS011;7491;57.750;11.970;2023-09-12T13:31:41;3.00;;;1.02;;
14799;SDS011;7491;57.750;11.970;2023-09-12T13:34:08;2.35;;;0.80;;
14799;SDS011;7491;57.750;11.970;2023-09-12T13:36:37;5.43;;;1.38;;
14799;SDS011;7491;57.750;11.970;2023-09-12T13:39:04;1.65;;;0.85;;
14799;SDS011;7491;57.750;11.970;2023-09-12T13:41:31;2.88;;;1.13;;
14799;SDS011;7491;57.750;11.970;2023-09-12T13:43:58;2.90;;;0.77;;
14799;SDS011;7491;57.750;11.970;2023-09-12T13:46:25;2.33;;;1.13;;
14799;SDS011;7491;57.750;11.970;2023-09-12T13:48:52;1.67;;;0.80;;
14799;SDS011;7491;57.750;11.970;2023-09-12T13:51:19;2.42;;;1.25;;
14799;SDS011;7491;57.750;11.970;2023-09-12T13:53:47;5.93;;;1.05;;
14799;SDS011;7491;57.750;11.970;2023-09-12T13:56:14;2.30;;;1.00;;
14799;SDS011;7491;57.750;11.970;2023-09-12T13:58:40;2.40;;;0.90;;
14799;SDS011;7491;57.750;11.970;2023-09-12T14:01:07;5.80;;;1.17;;
14799;SDS011;7491;57.750;11.970;2023-09-12T14:03:34;3.92;;;1.00;;
14799;SDS011;7491;57.750;11.970;2023-09-12T14:06:01;2.05;;;0.95;;
14799;SDS011;7491;57.750;11.970;2023-09-12T14:08:28;2.90;;;0.98;;
14799;SDS011;7491;57.750;11.970;2023-09-12T14:10:56;5.07;;;1.10;;
14799;SDS011;7491;57.750;11.970;2023-09-12T14:13:23;5.35;;;1.30;;
14799;SDS011;7491;57.750;11.970;2023-09-12T14:15:50;2.97;;;1.08;;
14799;SDS011;7491;57.750;11.970;2023-09-12T14:18:17;1.75;;;1.00;;
14799;SDS011;7491;57.750;11.970;2023-09-12T14:20:44;3.10;;;1.02;;
14799;SDS011;7491;57.750;11.970;2023-09-12T14:23:11;3.55;;;0.88;;
14799;SDS011;7491;57.750;11.970;2023-09-12T14:25:38;2.03;;;1.23;;
14799;SDS011;7491;57.750;11.970;2023-09-12T14:28:06;4.43;;;1.15;;
14799;SDS011;7491;57.750;11.970;2023-09-12T14:30:33;6.85;;;1.20;;
14799;SDS011;7491;57.750;11.970;2023-09-12T14:33:01;3.25;;;1.15;;
14799;SDS011;7491;57.750;11.970;2023-09-12T14:35:28;3.70;;;1.30;;